Mercer County Airport Bluefield US
ICAO: KBLF
IATA: BLF
Category: Medium
Scheduled Services: Yes

Elevation: 2857 ft
TransAlt. 18000 ft.

Airport Communications:
ASOS:132.725
INDIANAPOLIS CNTR:126.575
CTAF:122.9
ELKINS RDO:122.2

KBLF Zoom In..

Runways:

(A) RW 05 length 4743 ft width 100 ft
---- / hdg 49

(B) RW 23 length 4743 ft width 100 ft
ILS 109.50 / hdg 229

Location; KBLF
Day. 23 / Time. 14.52 Zulu
* Altimeter: 29.78
* Temperature: 07° c. 44.6°f.
* Wind from: 250° Speed 18 kn with Gusts up to 26 kn.
Dewpoint: -03° c.
Visibility: 10 Statute Miles.
Clouds: Few 4400 ft.

KBLF 231452Z AUTO 25018G26KT 10SM FEW044 07/M03 A2978 RMK AO2 PK WND 26027/1428 SLP076 T00671028 53014


Wind From 250°
Speed 18 kn.

YouTube Music Video
 
jpsmedia.com for Web Design  worldairports.se 2018   terms of use